This is the latest recevied weather packets stored in our database for station/object N3AVN. If no packets are shown the sender has not sent any weather packets the latest 10 day(s).
| Time | Temp. | Humidity | Pressure | Rain* | Wind** | Luminosity | Snow |
|---|---|---|---|---|---|---|---|
| 1778171652 | 16.67° C | 38% | 1007.9 hPa | 0 mm | - | 617 W/m² | - |
| 1778171349 | 16.11° C | 38% | 1008.2 hPa | 0 mm | - | 707 W/m² | - |
| 1778171044 | 16.67° C | 37% | 1008.2 hPa | 0 mm | - | 712 W/m² | - |
| 1778170742 | 15.56° C | 36% | 1008.2 hPa | 0 mm | - | 717 W/m² | - |
| 1778170437 | 16.11° C | 39% | 1008.2 hPa | 0 mm | - | 543 W/m² | - |
| 1778170134 | 16.11° C | 35% | 1008.3 hPa | 0 mm | - | 712 W/m² | - |
| 1778169830 | 17.22° C | 38% | 1008.5 hPa | 0 mm | - | 458 W/m² | - |
| 1778169526 | 16.11° C | 35% | 1008.5 hPa | 0 mm | - | 690 W/m² | - |
| 1778169222 | 16.67° C | 37% | 1008.3 hPa | 0 mm | - | 689 W/m² | - |
| 1778168919 | 15.56° C | 40% | 1008.6 hPa | 0 mm | - | 712 W/m² | - |
| 1778168616 | 15.56° C | 40% | 1008.6 hPa | 0 mm | - | 607 W/m² | - |
| 1778168313 | 15.56° C | 41% | 1008.7 hPa | 0 mm | - | 675 W/m² | - |
| 1778168010 | 15.56° C | 39% | 1008.7 hPa | 0 mm | - | 722 W/m² | - |
| 1778167707 | 15° C | 41% | 1008.9 hPa | 0 mm | - | 592 W/m² | - |
| 1778167403 | 15° C | 40% | 1008.7 hPa | 0 mm | - | 692 W/m² | - |
| 1778167099 | 15° C | 36% | 1008.6 hPa | 0 mm | - | 620 W/m² | - |
| 1778166795 | 14.44° C | 40% | 1009 hPa | 0 mm | - | 533 W/m² | - |
| 1778166492 | 15° C | 40% | 1008.8 hPa | 0 mm | - | 669 W/m² | - |
| 1778166189 | 15.56° C | 40% | 1008.5 hPa | 0 mm | - | 636 W/m² | - |
| 1778165885 | 16.11° C | 42% | 1008.8 hPa | 0 mm | - | 580 W/m² | - |
| 1778165581 | 15.56° C | 41% | 1008.7 hPa | 0 mm | - | 637 W/m² | - |
| 1778165279 | 15° C | 40% | 1009.1 hPa | 0 mm | - | 636 W/m² | - |
| 1778164976 | 14.44° C | 41% | 1008.8 hPa | 0 mm | - | 590 W/m² | - |
| 1778164672 | 15° C | 45% | 1009.2 hPa | 0 mm | - | 554 W/m² | - |
| 1778164370 | 15.56° C | 40% | 1009.1 hPa | 0 mm | - | 591 W/m² | - |
* Rain latest hour (hover to see other rain measurements)
** Current wind speed in m/s (hover to see current wind gust speed)